Terminal Aerodrome Forecast
Issued by NWS

Home | Current Version | Previous Version | Text Only | Print | Product List | Glossary On
Versions: 1 2 3 4 5 6 7 8 9 10 11 12 13 14 15
227
FTUS45 KTFX 270544
TAFGTF
TAF
KGTF 270544Z 2706/2806 23006KT P6SM BKN120
     FM272000 32012KT P6SM -SHRA SCT030 BKN050
      TEMPO 2720/2723 VRB12G20KT 5SM -TSRA BKN040CB
     FM280300 31006KT P6SM SCT050 BKN090=

USA.gov is the U.S. government's official web portal to all federal, state and local government web resources and services.